sensor_id;sensor_type;location;lat;lon;timestamp;temperature;humidity
16267;DHT22;8241;48.786;9.250;2023-04-24T00:02:03;12.10;99.90
16267;DHT22;8241;48.786;9.250;2023-04-24T00:04:32;12.10;99.90
16267;DHT22;8241;48.786;9.250;2023-04-24T00:06:59;12.20;99.90
16267;DHT22;8241;48.786;9.250;2023-04-24T00:09:26;12.10;99.90
16267;DHT22;8241;48.786;9.250;2023-04-24T00:11:53;12.10;99.90
16267;DHT22;8241;48.786;9.250;2023-04-24T00:14:21;12.20;99.90
16267;DHT22;8241;48.786;9.250;2023-04-24T00:16:52;12.10;99.90
16267;DHT22;8241;48.786;9.250;2023-04-24T00:19:20;12.10;99.90
16267;DHT22;8241;48.786;9.250;2023-04-24T00:21:47;12.10;99.90
16267;DHT22;8241;48.786;9.250;2023-04-24T00:24:16;12.10;99.90
16267;DHT22;8241;48.786;9.250;2023-04-24T00:26:43;12.10;99.90
16267;DHT22;8241;48.786;9.250;2023-04-24T00:29:10;12.10;99.90
16267;DHT22;8241;48.786;9.250;2023-04-24T00:31:38;12.00;99.90
16267;DHT22;8241;48.786;9.250;2023-04-24T00:34:06;12.10;99.90
16267;DHT22;8241;48.786;9.250;2023-04-24T00:36:33;12.10;99.90
16267;DHT22;8241;48.786;9.250;2023-04-24T00:39:00;12.10;99.90
16267;DHT22;8241;48.786;9.250;2023-04-24T00:41:28;12.00;99.90
16267;DHT22;8241;48.786;9.250;2023-04-24T00:43:55;12.00;99.90
16267;DHT22;8241;48.786;9.250;2023-04-24T00:46:22;12.00;99.90
16267;DHT22;8241;48.786;9.250;2023-04-24T00:48:49;12.00;99.90
16267;DHT22;8241;48.786;9.250;2023-04-24T00:51:18;12.00;99.90
16267;DHT22;8241;48.786;9.250;2023-04-24T00:53:46;12.10;99.90
16267;DHT22;8241;48.786;9.250;2023-04-24T00:56:14;12.20;99.90
16267;DHT22;8241;48.786;9.250;2023-04-24T00:58:42;12.10;99.90
16267;DHT22;8241;48.786;9.250;2023-04-24T01:01:10;12.10;99.90
16267;DHT22;8241;48.786;9.250;2023-04-24T01:03:37;12.20;99.90
16267;DHT22;8241;48.786;9.250;2023-04-24T01:06:05;12.30;99.90
16267;DHT22;8241;48.786;9.250;2023-04-24T01:08:34;12.30;99.90
16267;DHT22;8241;48.786;9.250;2023-04-24T01:11:03;12.30;99.90
16267;DHT22;8241;48.786;9.250;2023-04-24T01:13:32;12.30;99.90
16267;DHT22;8241;48.786;9.250;2023-04-24T01:16:00;12.20;99.90
16267;DHT22;8241;48.786;9.250;2023-04-24T01:18:27;12.30;99.90
16267;DHT22;8241;48.786;9.250;2023-04-24T01:20:57;12.30;99.90
16267;DHT22;8241;48.786;9.250;2023-04-24T01:23:26;12.30;99.90
16267;DHT22;8241;48.786;9.250;2023-04-24T01:25:54;12.30;99.90
16267;DHT22;8241;48.786;9.250;2023-04-24T01:28:22;12.30;99.90
16267;DHT22;8241;48.786;9.250;2023-04-24T01:30:52;12.30;99.90
16267;DHT22;8241;48.786;9.250;2023-04-24T01:33:22;12.40;99.90
16267;DHT22;8241;48.786;9.250;2023-04-24T01:35:49;12.40;99.90
16267;DHT22;8241;48.786;9.250;2023-04-24T01:38:17;12.30;99.90
16267;DHT22;8241;48.786;9.250;2023-04-24T01:40:46;12.30;99.90
16267;DHT22;8241;48.786;9.250;2023-04-24T01:43:13;12.20;99.90
16267;DHT22;8241;48.786;9.250;2023-04-24T01:45:40;12.20;99.90
16267;DHT22;8241;48.786;9.250;2023-04-24T01:48:11;12.20;99.90
16267;DHT22;8241;48.786;9.250;2023-04-24T01:50:41;12.20;99.90
16267;DHT22;8241;48.786;9.250;2023-04-24T01:53:11;12.20;99.90
16267;DHT22;8241;48.786;9.250;2023-04-24T01:55:38;12.20;99.90
16267;DHT22;8241;48.786;9.250;2023-04-24T01:58:07;12.20;99.90
16267;DHT22;8241;48.786;9.250;2023-04-24T02:00:34;12.20;99.90
16267;DHT22;8241;48.786;9.250;2023-04-24T02:03:01;12.20;99.90
16267;DHT22;8241;48.786;9.250;2023-04-24T02:05:28;12.20;99.90
16267;DHT22;8241;48.786;9.250;2023-04-24T02:07:57;12.20;99.90
16267;DHT22;8241;48.786;9.250;2023-04-24T02:10:24;12.10;99.90
16267;DHT22;8241;48.786;9.250;2023-04-24T02:12:52;12.10;99.90
16267;DHT22;8241;48.786;9.250;2023-04-24T02:15:24;12.10;99.90
16267;DHT22;8241;48.786;9.250;2023-04-24T02:17:51;12.10;99.90
16267;DHT22;8241;48.786;9.250;2023-04-24T02:20:18;12.00;99.90
16267;DHT22;8241;48.786;9.250;2023-04-24T02:22:45;12.00;99.90
16267;DHT22;8241;48.786;9.250;2023-04-24T02:25:13;12.00;99.90
16267;DHT22;8241;48.786;9.250;2023-04-24T02:27:40;12.00;99.90
16267;DHT22;8241;48.786;9.250;2023-04-24T02:30:08;12.00;99.90
16267;DHT22;8241;48.786;9.250;2023-04-24T02:32:37;12.00;99.90
16267;DHT22;8241;48.786;9.250;2023-04-24T02:35:05;11.90;99.90
16267;DHT22;8241;48.786;9.250;2023-04-24T02:37:35;11.90;99.90
16267;DHT22;8241;48.786;9.250;2023-04-24T02:40:03;12.00;99.90
16267;DHT22;8241;48.786;9.250;2023-04-24T02:42:31;12.00;99.90
16267;DHT22;8241;48.786;9.250;2023-04-24T02:44:58;12.00;99.90
16267;DHT22;8241;48.786;9.250;2023-04-24T02:47:25;11.90;99.90
16267;DHT22;8241;48.786;9.250;2023-04-24T02:49:54;12.00;99.90
16267;DHT22;8241;48.786;9.250;2023-04-24T02:52:21;12.00;99.90
16267;DHT22;8241;48.786;9.250;2023-04-24T02:54:48;12.00;99.90
16267;DHT22;8241;48.786;9.250;2023-04-24T02:57:15;12.00;99.90
16267;DHT22;8241;48.786;9.250;2023-04-24T02:59:42;11.90;99.90
16267;DHT22;8241;48.786;9.250;2023-04-24T03:02:09;11.80;99.90
16267;DHT22;8241;48.786;9.250;2023-04-24T03:04:36;11.80;99.90
16267;DHT22;8241;48.786;9.250;2023-04-24T03:07:05;11.70;99.90
16267;DHT22;8241;48.786;9.250;2023-04-24T03:09:32;11.70;99.90
16267;DHT22;8241;48.786;9.250;2023-04-24T03:11:59;11.70;99.90
16267;DHT22;8241;48.786;9.250;2023-04-24T03:14:26;11.70;99.90
16267;DHT22;8241;48.786;9.250;2023-04-24T03:16:55;11.70;99.90
16267;DHT22;8241;48.786;9.250;2023-04-24T03:19:22;11.60;99.90
16267;DHT22;8241;48.786;9.250;2023-04-24T03:21:59;11.60;99.90
16267;DHT22;8241;48.786;9.250;2023-04-24T03:24:30;11.60;99.90
16267;DHT22;8241;48.786;9.250;2023-04-24T03:26:57;11.60;99.90
16267;DHT22;8241;48.786;9.250;2023-04-24T03:29:45;11.60;99.90
16267;DHT22;8241;48.786;9.250;2023-04-24T03:32:13;11.50;99.90
16267;DHT22;8241;48.786;9.250;2023-04-24T03:34:40;11.50;99.90
16267;DHT22;8241;48.786;9.250;2023-04-24T03:37:10;11.50;99.90
16267;DHT22;8241;48.786;9.250;2023-04-24T03:39:42;11.50;99.90
16267;DHT22;8241;48.786;9.250;2023-04-24T03:42:10;11.50;99.90
16267;DHT22;8241;48.786;9.250;2023-04-24T03:44:48;11.50;99.90
16267;DHT22;8241;48.786;9.250;2023-04-24T03:47:15;11.40;99.90
16267;DHT22;8241;48.786;9.250;2023-04-24T03:49:42;11.50;99.90
16267;DHT22;8241;48.786;9.250;2023-04-24T03:52:10;11.50;99.90
16267;DHT22;8241;48.786;9.250;2023-04-24T03:54:37;11.50;99.90
16267;DHT22;8241;48.786;9.250;2023-04-24T03:57:09;11.40;99.90
16267;DHT22;8241;48.786;9.250;2023-04-24T03:59:41;11.30;99.90
16267;DHT22;8241;48.786;9.250;2023-04-24T04:02:13;11.30;99.90
16267;DHT22;8241;48.786;9.250;2023-04-24T04:04:40;11.30;99.90
16267;DHT22;8241;48.786;9.250;2023-04-24T04:07:07;11.20;99.90
16267;DHT22;8241;48.786;9.250;2023-04-24T04:09:35;11.20;99.90
16267;DHT22;8241;48.786;9.250;2023-04-24T04:12:02;11.20;99.90
16267;DHT22;8241;48.786;9.250;2023-04-24T04:14:32;11.20;99.90
16267;DHT22;8241;48.786;9.250;2023-04-24T04:17:00;11.30;99.90
16267;DHT22;8241;48.786;9.250;2023-04-24T04:19:27;11.30;99.90
16267;DHT22;8241;48.786;9.250;2023-04-24T04:21:59;11.30;99.90
16267;DHT22;8241;48.786;9.250;2023-04-24T04:24:40;11.40;99.90
16267;DHT22;8241;48.786;9.250;2023-04-24T04:27:09;11.30;99.90
16267;DHT22;8241;48.786;9.250;2023-04-24T04:29:50;11.30;99.90
16267;DHT22;8241;48.786;9.250;2023-04-24T04:32:17;11.30;99.90
16267;DHT22;8241;48.786;9.250;2023-04-24T04:34:44;11.20;99.90
16267;DHT22;8241;48.786;9.250;2023-04-24T04:37:12;11.10;99.90
16267;DHT22;8241;48.786;9.250;2023-04-24T04:40:07;11.20;99.90
16267;DHT22;8241;48.786;9.250;2023-04-24T04:42:40;11.30;99.90
16267;DHT22;8241;48.786;9.250;2023-04-24T04:45:10;11.40;99.90
16267;DHT22;8241;48.786;9.250;2023-04-24T04:47:50;11.40;99.90
16267;DHT22;8241;48.786;9.250;2023-04-24T04:50:17;11.50;99.90
16267;DHT22;8241;48.786;9.250;2023-04-24T04:52:47;11.50;99.90
16267;DHT22;8241;48.786;9.250;2023-04-24T04:55:22;11.40;99.90
16267;DHT22;8241;48.786;9.250;2023-04-24T04:58:05;11.20;99.90
16267;DHT22;8241;48.786;9.250;2023-04-24T05:00:37;11.20;99.90
16267;DHT22;8241;48.786;9.250;2023-04-24T05:03:14;11.20;99.90
16267;DHT22;8241;48.786;9.250;2023-04-24T05:05:41;11.10;99.90
16267;DHT22;8241;48.786;9.250;2023-04-24T05:08:11;10.80;99.90
16267;DHT22;8241;48.786;9.250;2023-04-24T05:10:38;10.50;99.90
16267;DHT22;8241;48.786;9.250;2023-04-24T05:13:06;10.20;99.90
16267;DHT22;8241;48.786;9.250;2023-04-24T05:15:34;10.10;99.90
16267;DHT22;8241;48.786;9.250;2023-04-24T05:18:02;10.10;99.90
16267;DHT22;8241;48.786;9.250;2023-04-24T05:20:29;10.10;99.90
16267;DHT22;8241;48.786;9.250;2023-04-24T05:22:56;10.20;99.90
16267;DHT22;8241;48.786;9.250;2023-04-24T05:25:24;10.20;99.90
16267;DHT22;8241;48.786;9.250;2023-04-24T05:27:56;10.30;99.90
16267;DHT22;8241;48.786;9.250;2023-04-24T05:30:23;10.40;99.90
16267;DHT22;8241;48.786;9.250;2023-04-24T05:32:52;10.50;99.90
16267;DHT22;8241;48.786;9.250;2023-04-24T05:35:20;10.60;99.90
16267;DHT22;8241;48.786;9.250;2023-04-24T05:37:47;10.60;99.90
16267;DHT22;8241;48.786;9.250;2023-04-24T05:40:14;10.60;99.90
16267;DHT22;8241;48.786;9.250;2023-04-24T05:42:44;10.70;99.90
16267;DHT22;8241;48.786;9.250;2023-04-24T05:45:12;10.70;99.90
16267;DHT22;8241;48.786;9.250;2023-04-24T05:47:42;10.80;99.90
16267;DHT22;8241;48.786;9.250;2023-04-24T05:50:14;10.80;99.90
16267;DHT22;8241;48.786;9.250;2023-04-24T05:52:42;10.80;99.90
16267;DHT22;8241;48.786;9.250;2023-04-24T05:55:21;10.80;99.90
16267;DHT22;8241;48.786;9.250;2023-04-24T05:57:49;10.90;99.90
16267;DHT22;8241;48.786;9.250;2023-04-24T06:00:16;10.80;99.90
16267;DHT22;8241;48.786;9.250;2023-04-24T06:02:51;10.70;99.90
16267;DHT22;8241;48.786;9.250;2023-04-24T06:05:21;10.70;99.90
16267;DHT22;8241;48.786;9.250;2023-04-24T06:07:52;10.60;99.90
16267;DHT22;8241;48.786;9.250;2023-04-24T06:10:22;10.60;99.90
16267;DHT22;8241;48.786;9.250;2023-04-24T06:12:49;10.70;99.90
16267;DHT22;8241;48.786;9.250;2023-04-24T06:15:22;10.80;99.90
16267;DHT22;8241;48.786;9.250;2023-04-24T06:18:07;10.80;99.90
16267;DHT22;8241;48.786;9.250;2023-04-24T06:20:38;10.90;99.90
16267;DHT22;8241;48.786;9.250;2023-04-24T06:23:08;11.00;99.90
16267;DHT22;8241;48.786;9.250;2023-04-24T06:25:35;11.20;99.90
16267;DHT22;8241;48.786;9.250;2023-04-24T06:28:03;11.30;99.90
16267;DHT22;8241;48.786;9.250;2023-04-24T06:30:30;11.30;99.90
16267;DHT22;8241;48.786;9.250;2023-04-24T06:32:58;11.20;99.90
16267;DHT22;8241;48.786;9.250;2023-04-24T06:35:27;11.30;99.90
16267;DHT22;8241;48.786;9.250;2023-04-24T06:37:55;11.60;99.90
16267;DHT22;8241;48.786;9.250;2023-04-24T06:40:23;11.90;99.90
16267;DHT22;8241;48.786;9.250;2023-04-24T06:42:50;12.30;99.90
16267;DHT22;8241;48.786;9.250;2023-04-24T06:45:18;12.50;99.90
16267;DHT22;8241;48.786;9.250;2023-04-24T06:47:46;12.70;99.90
16267;DHT22;8241;48.786;9.250;2023-04-24T06:50:13;12.80;99.90
16267;DHT22;8241;48.786;9.250;2023-04-24T06:52:40;12.60;99.90
16267;DHT22;8241;48.786;9.250;2023-04-24T06:55:10;12.60;99.90
16267;DHT22;8241;48.786;9.250;2023-04-24T06:57:37;12.70;99.90
16267;DHT22;8241;48.786;9.250;2023-04-24T07:00:05;13.00;99.90
16267;DHT22;8241;48.786;9.250;2023-04-24T07:02:32;13.10;99.90
16267;DHT22;8241;48.786;9.250;2023-04-24T07:04:59;13.40;99.90
16267;DHT22;8241;48.786;9.250;2023-04-24T07:07:27;13.00;99.90
16267;DHT22;8241;48.786;9.250;2023-04-24T07:09:54;12.90;99.90
16267;DHT22;8241;48.786;9.250;2023-04-24T07:12:23;13.70;99.90
16267;DHT22;8241;48.786;9.250;2023-04-24T07:14:50;14.00;99.90
16267;DHT22;8241;48.786;9.250;2023-04-24T07:17:18;13.70;99.90
16267;DHT22;8241;48.786;9.250;2023-04-24T07:19:45;13.30;99.90
16267;DHT22;8241;48.786;9.250;2023-04-24T07:22:12;13.10;99.90
16267;DHT22;8241;48.786;9.250;2023-04-24T07:24:42;12.80;99.90
16267;DHT22;8241;48.786;9.250;2023-04-24T07:27:09;12.60;99.90
16267;DHT22;8241;48.786;9.250;2023-04-24T07:29:42;12.30;99.90
16267;DHT22;8241;48.786;9.250;2023-04-24T07:32:09;12.30;99.90
16267;DHT22;8241;48.786;9.250;2023-04-24T07:34:36;12.30;99.90
16267;DHT22;8241;48.786;9.250;2023-04-24T07:37:03;12.30;99.90
16267;DHT22;8241;48.786;9.250;2023-04-24T07:39:31;12.40;99.90
16267;DHT22;8241;48.786;9.250;2023-04-24T07:41:58;12.60;99.90
16267;DHT22;8241;48.786;9.250;2023-04-24T07:44:27;13.40;98.80
16267;DHT22;8241;48.786;9.250;2023-04-24T07:46:56;14.00;96.70
16267;DHT22;8241;48.786;9.250;2023-04-24T07:49:23;14.90;94.10
16267;DHT22;8241;48.786;9.250;2023-04-24T07:51:50;15.20;92.70
16267;DHT22;8241;48.786;9.250;2023-04-24T07:54:18;14.60;93.40
16267;DHT22;8241;48.786;9.250;2023-04-24T07:56:45;14.00;94.70
16267;DHT22;8241;48.786;9.250;2023-04-24T07:59:12;13.50;93.90
16267;DHT22;8241;48.786;9.250;2023-04-24T08:01:39;13.20;94.50
16267;DHT22;8241;48.786;9.250;2023-04-24T08:04:08;13.00;94.20
16267;DHT22;8241;48.786;9.250;2023-04-24T08:06:35;13.00;94.70
16267;DHT22;8241;48.786;9.250;2023-04-24T08:09:02;13.10;94.10
16267;DHT22;8241;48.786;9.250;2023-04-24T08:11:29;13.00;93.80
16267;DHT22;8241;48.786;9.250;2023-04-24T08:13:56;13.00;94.60
16267;DHT22;8241;48.786;9.250;2023-04-24T08:16:23;12.80;93.60
16267;DHT22;8241;48.786;9.250;2023-04-24T08:18:51;12.70;94.00
16267;DHT22;8241;48.786;9.250;2023-04-24T08:21:19;12.70;94.00
16267;DHT22;8241;48.786;9.250;2023-04-24T08:23:47;12.60;93.90
16267;DHT22;8241;48.786;9.250;2023-04-24T08:26:14;12.70;93.70
16267;DHT22;8241;48.786;9.250;2023-04-24T08:28:41;12.70;94.20
16267;DHT22;8241;48.786;9.250;2023-04-24T08:31:09;12.70;94.50
16267;DHT22;8241;48.786;9.250;2023-04-24T08:33:36;13.00;93.50
16267;DHT22;8241;48.786;9.250;2023-04-24T08:36:04;13.10;92.80
16267;DHT22;8241;48.786;9.250;2023-04-24T08:38:33;12.90;93.10
16267;DHT22;8241;48.786;9.250;2023-04-24T08:41:01;12.90;93.40
16267;DHT22;8241;48.786;9.250;2023-04-24T08:43:30;12.90;93.30
16267;DHT22;8241;48.786;9.250;2023-04-24T08:45:59;13.00;93.60
16267;DHT22;8241;48.786;9.250;2023-04-24T08:48:26;12.80;93.10
16267;DHT22;8241;48.786;9.250;2023-04-24T08:50:54;12.80;93.60
16267;DHT22;8241;48.786;9.250;2023-04-24T08:53:24;12.70;93.20
16267;DHT22;8241;48.786;9.250;2023-04-24T08:55:55;12.70;93.80
16267;DHT22;8241;48.786;9.250;2023-04-24T08:58:25;12.50;93.50
16267;DHT22;8241;48.786;9.250;2023-04-24T09:00:54;12.50;94.20
16267;DHT22;8241;48.786;9.250;2023-04-24T09:03:22;12.50;94.10
16267;DHT22;8241;48.786;9.250;2023-04-24T09:05:50;12.60;94.50
16267;DHT22;8241;48.786;9.250;2023-04-24T09:08:19;12.80;94.20
16267;DHT22;8241;48.786;9.250;2023-04-24T09:10:46;15.20;91.20
16267;DHT22;8241;48.786;9.250;2023-04-24T09:13:15;16.60;88.40
16267;DHT22;8241;48.786;9.250;2023-04-24T09:15:42;15.30;88.90
16267;DHT22;8241;48.786;9.250;2023-04-24T09:18:09;14.10;91.60
16267;DHT22;8241;48.786;9.250;2023-04-24T09:20:57;13.40;92.70
16267;DHT22;8241;48.786;9.250;2023-04-24T09:23:28;13.10;93.70
16267;DHT22;8241;48.786;9.250;2023-04-24T09:25:56;12.70;94.50
16267;DHT22;8241;48.786;9.250;2023-04-24T09:28:32;12.30;96.50
16267;DHT22;8241;48.786;9.250;2023-04-24T09:31:13;12.00;97.10
16267;DHT22;8241;48.786;9.250;2023-04-24T09:33:53;12.10;97.10
16267;DHT22;8241;48.786;9.250;2023-04-24T09:36:27;12.20;96.70
16267;DHT22;8241;48.786;9.250;2023-04-24T09:38:57;12.10;97.00
16267;DHT22;8241;48.786;9.250;2023-04-24T09:41:25;11.90;97.90
16267;DHT22;8241;48.786;9.250;2023-04-24T09:43:55;11.90;99.90
16267;DHT22;8241;48.786;9.250;2023-04-24T09:46:29;11.90;99.90
16267;DHT22;8241;48.786;9.250;2023-04-24T09:48:57;12.00;99.60
16267;DHT22;8241;48.786;9.250;2023-04-24T09:51:34;12.20;98.40
16267;DHT22;8241;48.786;9.250;2023-04-24T09:54:03;12.90;97.00
16267;DHT22;8241;48.786;9.250;2023-04-24T09:56:33;13.80;94.90
16267;DHT22;8241;48.786;9.250;2023-04-24T09:59:09;13.80;93.70
16267;DHT22;8241;48.786;9.250;2023-04-24T10:01:37;13.70;94.80
16267;DHT22;8241;48.786;9.250;2023-04-24T10:04:15;13.40;93.80
16267;DHT22;8241;48.786;9.250;2023-04-24T10:06:43;12.90;94.10
16267;DHT22;8241;48.786;9.250;2023-04-24T10:09:11;12.80;94.60
16267;DHT22;8241;48.786;9.250;2023-04-24T10:11:42;12.80;93.50
16267;DHT22;8241;48.786;9.250;2023-04-24T10:14:13;12.70;93.30
16267;DHT22;8241;48.786;9.250;2023-04-24T10:16:40;12.90;93.00
16267;DHT22;8241;48.786;9.250;2023-04-24T10:19:08;13.10;93.10
16267;DHT22;8241;48.786;9.250;2023-04-24T10:21:36;13.20;92.20
16267;DHT22;8241;48.786;9.250;2023-04-24T10:24:08;13.00;91.40
16267;DHT22;8241;48.786;9.250;2023-04-24T10:26:38;13.10;91.30
16267;DHT22;8241;48.786;9.250;2023-04-24T10:29:16;13.60;90.30
16267;DHT22;8241;48.786;9.250;2023-04-24T10:31:44;13.80;89.60
16267;DHT22;8241;48.786;9.250;2023-04-24T10:34:13;14.00;88.10
16267;DHT22;8241;48.786;9.250;2023-04-24T10:36:44;14.50;86.90
16267;DHT22;8241;48.786;9.250;2023-04-24T10:39:13;14.70;86.00
16267;DHT22;8241;48.786;9.250;2023-04-24T10:41:41;14.70;84.60
16267;DHT22;8241;48.786;9.250;2023-04-24T10:44:09;14.40;85.10
16267;DHT22;8241;48.786;9.250;2023-04-24T10:46:42;13.80;86.70
16267;DHT22;8241;48.786;9.250;2023-04-24T10:49:09;13.40;89.20
16267;DHT22;8241;48.786;9.250;2023-04-24T10:51:45;13.20;89.30
16267;DHT22;8241;48.786;9.250;2023-04-24T10:54:23;13.20;90.10
16267;DHT22;8241;48.786;9.250;2023-04-24T10:56:51;13.30;90.10
16267;DHT22;8241;48.786;9.250;2023-04-24T10:59:28;13.20;89.90
16267;DHT22;8241;48.786;9.250;2023-04-24T11:02:07;13.20;91.00
16267;DHT22;8241;48.786;9.250;2023-04-24T11:04:35;13.00;90.00
16267;DHT22;8241;48.786;9.250;2023-04-24T11:07:03;13.00;90.30
16267;DHT22;8241;48.786;9.250;2023-04-24T11:09:31;13.20;90.60
16267;DHT22;8241;48.786;9.250;2023-04-24T11:12:05;13.30;90.90
16267;DHT22;8241;48.786;9.250;2023-04-24T11:15:02;13.40;90.10
16267;DHT22;8241;48.786;9.250;2023-04-24T11:17:33;13.20;90.30
16267;DHT22;8241;48.786;9.250;2023-04-24T11:20:03;13.10;90.70
16267;DHT22;8241;48.786;9.250;2023-04-24T11:22:34;13.00;91.50
16267;DHT22;8241;48.786;9.250;2023-04-24T11:25:02;13.10;91.50
16267;DHT22;8241;48.786;9.250;2023-04-24T11:27:33;13.00;90.90
16267;DHT22;8241;48.786;9.250;2023-04-24T11:30:06;13.00;91.00
16267;DHT22;8241;48.786;9.250;2023-04-24T11:32:37;13.20;91.10
16267;DHT22;8241;48.786;9.250;2023-04-24T11:35:12;13.30;91.10
16267;DHT22;8241;48.786;9.250;2023-04-24T11:37:44;13.50;90.50
16267;DHT22;8241;48.786;9.250;2023-04-24T11:40:15;13.60;90.20
16267;DHT22;8241;48.786;9.250;2023-04-24T11:42:44;13.70;90.50
16267;DHT22;8241;48.786;9.250;2023-04-24T11:45:13;13.90;89.80
16267;DHT22;8241;48.786;9.250;2023-04-24T11:47:44;14.00;88.20
16267;DHT22;8241;48.786;9.250;2023-04-24T11:50:13;13.90;88.70
16267;DHT22;8241;48.786;9.250;2023-04-24T11:52:42;13.70;88.80
16267;DHT22;8241;48.786;9.250;2023-04-24T11:55:24;13.60;90.00
16267;DHT22;8241;48.786;9.250;2023-04-24T11:57:54;13.40;90.90
16267;DHT22;8241;48.786;9.250;2023-04-24T12:00:25;13.10;90.70
16267;DHT22;8241;48.786;9.250;2023-04-24T12:03:04;12.80;91.60
16267;DHT22;8241;48.786;9.250;2023-04-24T12:05:31;12.70;92.10
16267;DHT22;8241;48.786;9.250;2023-04-24T12:07:59;12.80;92.10
16267;DHT22;8241;48.786;9.250;2023-04-24T12:10:31;12.90;92.10
16267;DHT22;8241;48.786;9.250;2023-04-24T12:12:59;13.30;91.60
16267;DHT22;8241;48.786;9.250;2023-04-24T12:15:26;13.70;90.90
16267;DHT22;8241;48.786;9.250;2023-04-24T12:17:56;13.90;90.70
16267;DHT22;8241;48.786;9.250;2023-04-24T12:20:28;14.00;90.30
16267;DHT22;8241;48.786;9.250;2023-04-24T12:22:57;13.80;90.10
16267;DHT22;8241;48.786;9.250;2023-04-24T12:25:25;13.50;89.80
16267;DHT22;8241;48.786;9.250;2023-04-24T12:27:54;13.30;90.40
16267;DHT22;8241;48.786;9.250;2023-04-24T12:30:26;13.20;90.90
16267;DHT22;8241;48.786;9.250;2023-04-24T12:32:57;13.10;91.00
16267;DHT22;8241;48.786;9.250;2023-04-24T12:35:26;13.20;91.10
16267;DHT22;8241;48.786;9.250;2023-04-24T12:37:54;13.20;91.40
16267;DHT22;8241;48.786;9.250;2023-04-24T12:40:21;13.20;90.90
16267;DHT22;8241;48.786;9.250;2023-04-24T12:42:52;13.20;90.30
16267;DHT22;8241;48.786;9.250;2023-04-24T12:45:19;13.10;90.30
16267;DHT22;8241;48.786;9.250;2023-04-24T12:47:48;13.10;90.20
16267;DHT22;8241;48.786;9.250;2023-04-24T12:50:17;13.10;90.30
16267;DHT22;8241;48.786;9.250;2023-04-24T12:52:44;13.30;90.10
16267;DHT22;8241;48.786;9.250;2023-04-24T12:55:11;13.70;90.20
16267;DHT22;8241;48.786;9.250;2023-04-24T12:57:39;13.70;88.70
16267;DHT22;8241;48.786;9.250;2023-04-24T13:00:08;13.60;89.50
16267;DHT22;8241;48.786;9.250;2023-04-24T13:02:35;13.40;90.00
16267;DHT22;8241;48.786;9.250;2023-04-24T13:05:02;13.20;90.10
16267;DHT22;8241;48.786;9.250;2023-04-24T13:07:31;13.10;90.50
16267;DHT22;8241;48.786;9.250;2023-04-24T13:09:58;13.00;90.70
16267;DHT22;8241;48.786;9.250;2023-04-24T13:12:25;13.00;91.40
16267;DHT22;8241;48.786;9.250;2023-04-24T13:14:53;12.90;92.30
16267;DHT22;8241;48.786;9.250;2023-04-24T13:17:21;12.80;94.20
16267;DHT22;8241;48.786;9.250;2023-04-24T13:19:51;12.70;98.50
16267;DHT22;8241;48.786;9.250;2023-04-24T13:22:18;12.70;97.80
16267;DHT22;8241;48.786;9.250;2023-04-24T13:24:47;12.80;96.30
16267;DHT22;8241;48.786;9.250;2023-04-24T13:27:15;13.00;97.20
16267;DHT22;8241;48.786;9.250;2023-04-24T13:29:43;13.30;97.00
16267;DHT22;8241;48.786;9.250;2023-04-24T13:32:10;13.40;96.20
16267;DHT22;8241;48.786;9.250;2023-04-24T13:34:38;13.50;95.90
16267;DHT22;8241;48.786;9.250;2023-04-24T13:37:05;13.60;94.80
16267;DHT22;8241;48.786;9.250;2023-04-24T13:39:33;13.60;95.00
16267;DHT22;8241;48.786;9.250;2023-04-24T13:42:06;13.70;95.30
16267;DHT22;8241;48.786;9.250;2023-04-24T13:44:33;13.80;94.60
16267;DHT22;8241;48.786;9.250;2023-04-24T13:47:00;13.70;95.30
16267;DHT22;8241;48.786;9.250;2023-04-24T13:49:27;13.50;94.80
16267;DHT22;8241;48.786;9.250;2023-04-24T13:51:55;13.10;95.20
16267;DHT22;8241;48.786;9.250;2023-04-24T13:54:22;13.10;95.30
16267;DHT22;8241;48.786;9.250;2023-04-24T13:56:51;13.00;95.40
16267;DHT22;8241;48.786;9.250;2023-04-24T13:59:20;12.90;95.50
16267;DHT22;8241;48.786;9.250;2023-04-24T14:01:47;12.20;99.20
16267;DHT22;8241;48.786;9.250;2023-04-24T14:04:15;11.20;99.90
16267;DHT22;8241;48.786;9.250;2023-04-24T14:06:42;10.70;99.90
16267;DHT22;8241;48.786;9.250;2023-04-24T14:09:09;10.50;99.90
16267;DHT22;8241;48.786;9.250;2023-04-24T14:11:36;10.30;99.90
16267;DHT22;8241;48.786;9.250;2023-04-24T14:14:03;10.60;99.90
16267;DHT22;8241;48.786;9.250;2023-04-24T14:16:32;10.90;99.90
16267;DHT22;8241;48.786;9.250;2023-04-24T14:18:59;11.30;99.90
16267;DHT22;8241;48.786;9.250;2023-04-24T14:21:26;11.80;99.90
16267;DHT22;8241;48.786;9.250;2023-04-24T14:23:53;12.20;99.90
16267;DHT22;8241;48.786;9.250;2023-04-24T14:26:20;12.20;99.90
16267;DHT22;8241;48.786;9.250;2023-04-24T14:28:47;12.20;99.90
16267;DHT22;8241;48.786;9.250;2023-04-24T14:31:15;12.40;99.90
16267;DHT22;8241;48.786;9.250;2023-04-24T14:33:43;12.70;99.90
16267;DHT22;8241;48.786;9.250;2023-04-24T14:36:11;12.70;99.90
16267;DHT22;8241;48.786;9.250;2023-04-24T14:38:38;12.80;99.90
16267;DHT22;8241;48.786;9.250;2023-04-24T14:41:05;12.80;99.90
16267;DHT22;8241;48.786;9.250;2023-04-24T14:43:35;12.60;99.90
16267;DHT22;8241;48.786;9.250;2023-04-24T14:46:02;12.50;99.90
16267;DHT22;8241;48.786;9.250;2023-04-24T14:48:29;12.50;99.90
16267;DHT22;8241;48.786;9.250;2023-04-24T14:50:58;12.40;99.90
16267;DHT22;8241;48.786;9.250;2023-04-24T14:53:26;12.40;99.90
16267;DHT22;8241;48.786;9.250;2023-04-24T14:55:53;12.30;99.90
16267;DHT22;8241;48.786;9.250;2023-04-24T14:58:20;12.20;99.90
16267;DHT22;8241;48.786;9.250;2023-04-24T15:00:48;12.20;99.90
16267;DHT22;8241;48.786;9.250;2023-04-24T15:03:18;12.40;99.90
16267;DHT22;8241;48.786;9.250;2023-04-24T15:05:46;12.60;99.90
16267;DHT22;8241;48.786;9.250;2023-04-24T15:08:14;13.00;98.90
16267;DHT22;8241;48.786;9.250;2023-04-24T15:10:41;13.40;97.80
16267;DHT22;8241;48.786;9.250;2023-04-24T15:13:11;13.70;97.80
16267;DHT22;8241;48.786;9.250;2023-04-24T15:15:38;13.60;97.00
16267;DHT22;8241;48.786;9.250;2023-04-24T15:18:10;13.30;97.40
16267;DHT22;8241;48.786;9.250;2023-04-24T15:20:39;13.10;97.50
16267;DHT22;8241;48.786;9.250;2023-04-24T15:23:10;12.90;97.20
16267;DHT22;8241;48.786;9.250;2023-04-24T15:25:40;12.80;97.00
16267;DHT22;8241;48.786;9.250;2023-04-24T15:28:07;12.80;97.10
16267;DHT22;8241;48.786;9.250;2023-04-24T15:30:36;12.80;96.70
16267;DHT22;8241;48.786;9.250;2023-04-24T15:33:04;12.70;96.40
16267;DHT22;8241;48.786;9.250;2023-04-24T15:35:32;12.60;96.30
16267;DHT22;8241;48.786;9.250;2023-04-24T15:37:59;12.60;97.20
16267;DHT22;8241;48.786;9.250;2023-04-24T15:40:26;12.50;97.20
16267;DHT22;8241;48.786;9.250;2023-04-24T15:42:54;12.50;97.80
16267;DHT22;8241;48.786;9.250;2023-04-24T15:45:22;12.40;97.60
16267;DHT22;8241;48.786;9.250;2023-04-24T15:47:50;12.40;99.70
16267;DHT22;8241;48.786;9.250;2023-04-24T15:50:19;12.00;99.90
16267;DHT22;8241;48.786;9.250;2023-04-24T15:52:47;11.70;99.90
16267;DHT22;8241;48.786;9.250;2023-04-24T15:55:14;11.60;99.90
16267;DHT22;8241;48.786;9.250;2023-04-24T15:57:43;11.60;99.90